Lavaca, Alabama
Current Conditions -  °F | °C
As of 12:55 PM on Thursday 30 Oct 2014 (Local Time) from KDYA Reporting Station
Clear Clear  
Wind Chill: 68°   Ceiling: Unl
Heat Index: 68°   Visibility: 10mi
Dew Point: 32°   Wind: 7mph
Humidity: 26%   Direction: 340°NNW
Pressure: 30.09"   Gusts: NA
Location:  32.0668°N, 88.2133°W
Report Text: KDYA 301755Z AUTO 34006KT 10SM CLR 20/00 A3009 RMK AO2 T02011001 10202 20026
Loading
Personal Weather Stations






























Interactive Weather Map
Tropical Storm Tracking
New forecast layout! Learn more

10-Day Weather Forecast

Advertisements
Track Severe Weather on mobile